sensor_id;sensor_type;location;lat;lon;timestamp;P1;durP1;ratioP1;P2;durP2;ratioP2
14088;SDS011;7120;52.890;6.040;2022-09-09T00:04:29;48.03;;;22.67;;
14088;SDS011;7120;52.890;6.040;2022-09-09T00:10:22;38.53;;;18.57;;
14088;SDS011;7120;52.890;6.040;2022-09-09T00:15:27;38.57;;;19.37;;
14088;SDS011;7120;52.890;6.040;2022-09-09T00:21:07;36.20;;;19.97;;
14088;SDS011;7120;52.890;6.040;2022-09-09T00:23:39;62.40;;;23.73;;
14088;SDS011;7120;52.890;6.040;2022-09-09T00:31:21;81.47;;;24.57;;
14088;SDS011;7120;52.890;6.040;2022-09-09T00:33:50;34.57;;;19.10;;
14088;SDS011;7120;52.890;6.040;2022-09-09T00:36:18;61.07;;;25.33;;
14088;SDS011;7120;52.890;6.040;2022-09-09T00:38:48;56.53;;;21.03;;
14088;SDS011;7120;52.890;6.040;2022-09-09T00:44:37;37.90;;;19.03;;
14088;SDS011;7120;52.890;6.040;2022-09-09T00:58:37;50.33;;;19.93;;
14088;SDS011;7120;52.890;6.040;2022-09-09T01:01:04;69.10;;;23.07;;
14088;SDS011;7120;52.890;6.040;2022-09-09T01:06:31;47.17;;;19.93;;
14088;SDS011;7120;52.890;6.040;2022-09-09T01:09:06;52.80;;;22.90;;
14088;SDS011;7120;52.890;6.040;2022-09-09T01:22:28;57.70;;;24.47;;
14088;SDS011;7120;52.890;6.040;2022-09-09T01:27:33;46.20;;;22.33;;
14088;SDS011;7120;52.890;6.040;2022-09-09T01:30:04;53.40;;;22.67;;
14088;SDS011;7120;52.890;6.040;2022-09-09T01:32:38;62.07;;;23.73;;
14088;SDS011;7120;52.890;6.040;2022-09-09T01:35:10;51.97;;;22.23;;
14088;SDS011;7120;52.890;6.040;2022-09-09T01:37:57;42.07;;;20.67;;
14088;SDS011;7120;52.890;6.040;2022-09-09T01:40:23;56.63;;;24.50;;
14088;SDS011;7120;52.890;6.040;2022-09-09T01:42:49;38.10;;;19.50;;
14088;SDS011;7120;52.890;6.040;2022-09-09T01:45:14;47.63;;;22.37;;
14088;SDS011;7120;52.890;6.040;2022-09-09T01:47:40;39.57;;;19.53;;
14088;SDS011;7120;52.890;6.040;2022-09-09T01:50:06;48.40;;;21.83;;
14088;SDS011;7120;52.890;6.040;2022-09-09T01:52:36;45.07;;;21.43;;
14088;SDS011;7120;52.890;6.040;2022-09-09T01:55:02;45.57;;;22.37;;
14088;SDS011;7120;52.890;6.040;2022-09-09T01:57:33;38.87;;;21.00;;
14088;SDS011;7120;52.890;6.040;2022-09-09T02:00:20;32.13;;;18.87;;
14088;SDS011;7120;52.890;6.040;2022-09-09T02:08:00;102.97;;;31.43;;
14088;SDS011;7120;52.890;6.040;2022-09-09T02:13:20;50.57;;;25.17;;
14088;SDS011;7120;52.890;6.040;2022-09-09T02:15:55;51.60;;;23.07;;
14088;SDS011;7120;52.890;6.040;2022-09-09T02:18:27;60.60;;;25.50;;
14088;SDS011;7120;52.890;6.040;2022-09-09T02:20:58;58.10;;;24.30;;
14088;SDS011;7120;52.890;6.040;2022-09-09T02:23:24;65.13;;;26.57;;
14088;SDS011;7120;52.890;6.040;2022-09-09T02:25:50;62.33;;;26.57;;
14088;SDS011;7120;52.890;6.040;2022-09-09T02:28:18;53.00;;;22.83;;
14088;SDS011;7120;52.890;6.040;2022-09-09T02:30:47;58.87;;;25.73;;
14088;SDS011;7120;52.890;6.040;2022-09-09T02:33:20;58.93;;;23.30;;
14088;SDS011;7120;52.890;6.040;2022-09-09T02:35:49;55.97;;;22.70;;
14088;SDS011;7120;52.890;6.040;2022-09-09T02:38:16;55.10;;;24.07;;
14088;SDS011;7120;52.890;6.040;2022-09-09T02:40:42;58.37;;;23.27;;
14088;SDS011;7120;52.890;6.040;2022-09-09T02:43:08;58.77;;;23.07;;
14088;SDS011;7120;52.890;6.040;2022-09-09T02:45:40;67.60;;;23.67;;
14088;SDS011;7120;52.890;6.040;2022-09-09T02:56:42;67.40;;;26.93;;
14088;SDS011;7120;52.890;6.040;2022-09-09T02:59:15;58.07;;;24.60;;
14088;SDS011;7120;52.890;6.040;2022-09-09T03:01:41;56.17;;;23.67;;
14088;SDS011;7120;52.890;6.040;2022-09-09T03:04:06;69.20;;;27.17;;
14088;SDS011;7120;52.890;6.040;2022-09-09T03:06:32;62.30;;;24.60;;
14088;SDS011;7120;52.890;6.040;2022-09-09T03:08:58;55.50;;;24.17;;
14088;SDS011;7120;52.890;6.040;2022-09-09T03:11:25;71.97;;;25.37;;
14088;SDS011;7120;52.890;6.040;2022-09-09T03:13:52;69.07;;;24.27;;
14088;SDS011;7120;52.890;6.040;2022-09-09T03:16:17;58.87;;;23.70;;
14088;SDS011;7120;52.890;6.040;2022-09-09T03:18:43;50.23;;;21.80;;
14088;SDS011;7120;52.890;6.040;2022-09-09T03:21:10;55.07;;;24.00;;
14088;SDS011;7120;52.890;6.040;2022-09-09T03:23:36;72.83;;;22.63;;
14088;SDS011;7120;52.890;6.040;2022-09-09T03:26:01;62.40;;;22.77;;
14088;SDS011;7120;52.890;6.040;2022-09-09T03:28:26;60.80;;;23.20;;
14088;SDS011;7120;52.890;6.040;2022-09-09T03:31:02;55.00;;;22.23;;
14088;SDS011;7120;52.890;6.040;2022-09-09T03:33:29;54.40;;;21.53;;
14088;SDS011;7120;52.890;6.040;2022-09-09T03:35:55;63.17;;;23.03;;
14088;SDS011;7120;52.890;6.040;2022-09-09T03:38:22;60.63;;;23.37;;
14088;SDS011;7120;52.890;6.040;2022-09-09T03:40:52;66.87;;;23.43;;
14088;SDS011;7120;52.890;6.040;2022-09-09T03:43:23;68.67;;;23.17;;
14088;SDS011;7120;52.890;6.040;2022-09-09T03:45:50;51.00;;;22.27;;
14088;SDS011;7120;52.890;6.040;2022-09-09T03:48:16;60.23;;;23.47;;
14088;SDS011;7120;52.890;6.040;2022-09-09T03:50:48;46.37;;;20.33;;
14088;SDS011;7120;52.890;6.040;2022-09-09T03:53:19;44.87;;;20.30;;
14088;SDS011;7120;52.890;6.040;2022-09-09T03:55:47;49.03;;;21.10;;
14088;SDS011;7120;52.890;6.040;2022-09-09T03:58:15;44.53;;;20.83;;
14088;SDS011;7120;52.890;6.040;2022-09-09T04:00:43;65.03;;;24.13;;
14088;SDS011;7120;52.890;6.040;2022-09-09T04:03:10;51.00;;;20.57;;
14088;SDS011;7120;52.890;6.040;2022-09-09T04:05:36;49.93;;;20.87;;
14088;SDS011;7120;52.890;6.040;2022-09-09T04:08:05;46.53;;;20.40;;
14088;SDS011;7120;52.890;6.040;2022-09-09T04:10:31;41.33;;;20.00;;
14088;SDS011;7120;52.890;6.040;2022-09-09T04:12:56;40.83;;;19.97;;
14088;SDS011;7120;52.890;6.040;2022-09-09T04:15:22;51.37;;;20.10;;
14088;SDS011;7120;52.890;6.040;2022-09-09T04:17:47;70.07;;;22.40;;
14088;SDS011;7120;52.890;6.040;2022-09-09T04:20:12;62.50;;;24.47;;
14088;SDS011;7120;52.890;6.040;2022-09-09T04:22:38;57.17;;;24.37;;
14088;SDS011;7120;52.890;6.040;2022-09-09T04:25:04;52.20;;;22.90;;
14088;SDS011;7120;52.890;6.040;2022-09-09T04:27:30;70.07;;;27.07;;
14088;SDS011;7120;52.890;6.040;2022-09-09T04:29:56;81.10;;;28.73;;
14088;SDS011;7120;52.890;6.040;2022-09-09T04:32:22;80.93;;;27.67;;
14088;SDS011;7120;52.890;6.040;2022-09-09T04:34:48;84.90;;;28.80;;
14088;SDS011;7120;52.890;6.040;2022-09-09T04:37:13;74.17;;;28.33;;
14088;SDS011;7120;52.890;6.040;2022-09-09T04:39:39;78.10;;;28.73;;
14088;SDS011;7120;52.890;6.040;2022-09-09T04:42:04;73.90;;;26.70;;
14088;SDS011;7120;52.890;6.040;2022-09-09T04:44:30;44.10;;;22.17;;
14088;SDS011;7120;52.890;6.040;2022-09-09T04:46:55;67.90;;;24.87;;
14088;SDS011;7120;52.890;6.040;2022-09-09T04:49:21;90.10;;;26.57;;
14088;SDS011;7120;52.890;6.040;2022-09-09T04:51:48;73.47;;;25.77;;
14088;SDS011;7120;52.890;6.040;2022-09-09T04:54:14;97.07;;;28.90;;
14088;SDS011;7120;52.890;6.040;2022-09-09T04:56:40;76.67;;;27.30;;
14088;SDS011;7120;52.890;6.040;2022-09-09T04:59:07;64.20;;;25.63;;
14088;SDS011;7120;52.890;6.040;2022-09-09T05:01:32;57.07;;;23.87;;
14088;SDS011;7120;52.890;6.040;2022-09-09T05:03:58;66.67;;;23.57;;
14088;SDS011;7120;52.890;6.040;2022-09-09T05:06:24;65.10;;;23.90;;
14088;SDS011;7120;52.890;6.040;2022-09-09T05:08:49;75.03;;;27.00;;
14088;SDS011;7120;52.890;6.040;2022-09-09T05:13:45;44.70;;;21.87;;
14088;SDS011;7120;52.890;6.040;2022-09-09T05:16:11;79.77;;;28.90;;
14088;SDS011;7120;52.890;6.040;2022-09-09T05:18:40;79.20;;;24.93;;
14088;SDS011;7120;52.890;6.040;2022-09-09T05:21:06;67.63;;;24.47;;
14088;SDS011;7120;52.890;6.040;2022-09-09T05:23:33;58.17;;;25.00;;
14088;SDS011;7120;52.890;6.040;2022-09-09T05:25:59;56.07;;;23.90;;
14088;SDS011;7120;52.890;6.040;2022-09-09T05:28:25;81.27;;;25.40;;
14088;SDS011;7120;52.890;6.040;2022-09-09T05:30:55;48.17;;;22.00;;
14088;SDS011;7120;52.890;6.040;2022-09-09T05:33:33;75.20;;;24.37;;
14088;SDS011;7120;52.890;6.040;2022-09-09T05:36:07;85.47;;;26.27;;
14088;SDS011;7120;52.890;6.040;2022-09-09T05:38:34;58.83;;;23.00;;
14088;SDS011;7120;52.890;6.040;2022-09-09T05:41:00;79.37;;;25.20;;
14088;SDS011;7120;52.890;6.040;2022-09-09T05:43:27;74.73;;;24.87;;
14088;SDS011;7120;52.890;6.040;2022-09-09T05:46:16;65.77;;;25.93;;
14088;SDS011;7120;52.890;6.040;2022-09-09T05:48:42;74.07;;;26.40;;
14088;SDS011;7120;52.890;6.040;2022-09-09T05:51:11;63.53;;;24.50;;
14088;SDS011;7120;52.890;6.040;2022-09-09T05:53:40;56.60;;;23.23;;
14088;SDS011;7120;52.890;6.040;2022-09-09T05:56:07;62.70;;;24.20;;
14088;SDS011;7120;52.890;6.040;2022-09-09T05:58:39;53.33;;;22.07;;
14088;SDS011;7120;52.890;6.040;2022-09-09T06:01:05;56.17;;;22.67;;
14088;SDS011;7120;52.890;6.040;2022-09-09T06:03:36;55.77;;;22.03;;
14088;SDS011;7120;52.890;6.040;2022-09-09T06:06:04;69.23;;;24.13;;
14088;SDS011;7120;52.890;6.040;2022-09-09T06:08:31;61.97;;;25.23;;
14088;SDS011;7120;52.890;6.040;2022-09-09T06:11:01;47.47;;;21.80;;
14088;SDS011;7120;52.890;6.040;2022-09-09T06:13:37;46.67;;;20.30;;
14088;SDS011;7120;52.890;6.040;2022-09-09T06:16:04;62.53;;;21.93;;
14088;SDS011;7120;52.890;6.040;2022-09-09T06:18:33;53.50;;;23.17;;
14088;SDS011;7120;52.890;6.040;2022-09-09T06:21:02;53.37;;;21.37;;
14088;SDS011;7120;52.890;6.040;2022-09-09T06:23:30;43.33;;;20.43;;
14088;SDS011;7120;52.890;6.040;2022-09-09T06:26:05;58.03;;;22.30;;
14088;SDS011;7120;52.890;6.040;2022-09-09T06:28:36;46.70;;;20.63;;
14088;SDS011;7120;52.890;6.040;2022-09-09T06:31:02;39.63;;;20.10;;
14088;SDS011;7120;52.890;6.040;2022-09-09T06:33:33;48.07;;;20.63;;
14088;SDS011;7120;52.890;6.040;2022-09-09T06:36:00;31.40;;;18.63;;
14088;SDS011;7120;52.890;6.040;2022-09-09T06:38:27;43.13;;;20.83;;
14088;SDS011;7120;52.890;6.040;2022-09-09T06:40:56;30.13;;;17.67;;
14088;SDS011;7120;52.890;6.040;2022-09-09T06:43:23;37.67;;;20.00;;
14088;SDS011;7120;52.890;6.040;2022-09-09T06:45:53;30.77;;;17.27;;
14088;SDS011;7120;52.890;6.040;2022-09-09T06:48:22;25.93;;;17.20;;
14088;SDS011;7120;52.890;6.040;2022-09-09T06:50:48;36.40;;;18.83;;
14088;SDS011;7120;52.890;6.040;2022-09-09T06:53:17;30.10;;;16.70;;
14088;SDS011;7120;52.890;6.040;2022-09-09T06:55:44;36.10;;;17.87;;
14088;SDS011;7120;52.890;6.040;2022-09-09T06:58:10;22.97;;;15.67;;
14088;SDS011;7120;52.890;6.040;2022-09-09T07:00:36;25.17;;;16.57;;
14088;SDS011;7120;52.890;6.040;2022-09-09T07:03:03;25.90;;;15.93;;
14088;SDS011;7120;52.890;6.040;2022-09-09T07:05:30;24.00;;;16.30;;
14088;SDS011;7120;52.890;6.040;2022-09-09T07:07:55;22.10;;;15.40;;
14088;SDS011;7120;52.890;6.040;2022-09-09T07:10:20;18.07;;;14.03;;
14088;SDS011;7120;52.890;6.040;2022-09-09T07:12:50;24.37;;;15.70;;
14088;SDS011;7120;52.890;6.040;2022-09-09T07:15:16;22.53;;;15.63;;
14088;SDS011;7120;52.890;6.040;2022-09-09T07:17:43;20.57;;;15.03;;
14088;SDS011;7120;52.890;6.040;2022-09-09T07:20:09;19.93;;;14.83;;
14088;SDS011;7120;52.890;6.040;2022-09-09T07:22:34;22.77;;;14.93;;
14088;SDS011;7120;52.890;6.040;2022-09-09T07:25:00;25.23;;;15.73;;
14088;SDS011;7120;52.890;6.040;2022-09-09T07:27:27;20.00;;;14.67;;
14088;SDS011;7120;52.890;6.040;2022-09-09T07:29:52;18.23;;;14.73;;
14088;SDS011;7120;52.890;6.040;2022-09-09T07:32:19;22.10;;;16.23;;
14088;SDS011;7120;52.890;6.040;2022-09-09T07:34:45;21.30;;;15.07;;
14088;SDS011;7120;52.890;6.040;2022-09-09T07:37:11;16.63;;;13.47;;
14088;SDS011;7120;52.890;6.040;2022-09-09T07:39:38;15.37;;;13.00;;
14088;SDS011;7120;52.890;6.040;2022-09-09T07:42:04;14.67;;;11.73;;
14088;SDS011;7120;52.890;6.040;2022-09-09T07:44:30;16.80;;;11.60;;
14088;SDS011;7120;52.890;6.040;2022-09-09T07:46:57;11.77;;;10.47;;
14088;SDS011;7120;52.890;6.040;2022-09-09T07:49:22;11.40;;;10.17;;
14088;SDS011;7120;52.890;6.040;2022-09-09T07:51:49;10.47;;;9.33;;
14088;SDS011;7120;52.890;6.040;2022-09-09T07:54:15;9.87;;;8.77;;
14088;SDS011;7120;52.890;6.040;2022-09-09T07:56:45;11.30;;;8.73;;
14088;SDS011;7120;52.890;6.040;2022-09-09T07:59:11;9.00;;;7.97;;
14088;SDS011;7120;52.890;6.040;2022-09-09T08:01:42;9.13;;;7.67;;
14088;SDS011;7120;52.890;6.040;2022-09-09T08:04:11;9.43;;;7.03;;
14088;SDS011;7120;52.890;6.040;2022-09-09T08:06:46;8.40;;;6.73;;
14088;SDS011;7120;52.890;6.040;2022-09-09T08:09:13;10.50;;;6.33;;
14088;SDS011;7120;52.890;6.040;2022-09-09T08:11:40;9.67;;;5.87;;
14088;SDS011;7120;52.890;6.040;2022-09-09T08:14:07;8.90;;;5.67;;
14088;SDS011;7120;52.890;6.040;2022-09-09T08:16:33;7.77;;;5.07;;
14088;SDS011;7120;52.890;6.040;2022-09-09T08:19:02;8.70;;;5.27;;
14088;SDS011;7120;52.890;6.040;2022-09-09T08:21:29;8.13;;;5.10;;
14088;SDS011;7120;52.890;6.040;2022-09-09T08:23:57;8.23;;;4.83;;
14088;SDS011;7120;52.890;6.040;2022-09-09T08:26:25;7.00;;;4.47;;
14088;SDS011;7120;52.890;6.040;2022-09-09T08:28:53;10.50;;;4.83;;
14088;SDS011;7120;52.890;6.040;2022-09-09T08:31:25;6.83;;;4.80;;
14088;SDS011;7120;52.890;6.040;2022-09-09T08:33:56;9.37;;;4.83;;
14088;SDS011;7120;52.890;6.040;2022-09-09T08:36:25;8.47;;;4.50;;
14088;SDS011;7120;52.890;6.040;2022-09-09T08:38:53;11.20;;;4.90;;
14088;SDS011;7120;52.890;6.040;2022-09-09T08:51:59;6.80;;;3.60;;
14088;SDS011;7120;52.890;6.040;2022-09-09T08:54:26;6.27;;;3.20;;
14088;SDS011;7120;52.890;6.040;2022-09-09T08:56:58;7.50;;;3.97;;
14088;SDS011;7120;52.890;6.040;2022-09-09T08:59:23;8.13;;;3.60;;
14088;SDS011;7120;52.890;6.040;2022-09-09T09:04:37;8.07;;;3.60;;
14088;SDS011;7120;52.890;6.040;2022-09-09T09:07:25;5.80;;;3.17;;
14088;SDS011;7120;52.890;6.040;2022-09-09T09:13:19;8.93;;;3.67;;
14088;SDS011;7120;52.890;6.040;2022-09-09T09:15:54;5.83;;;3.17;;
14088;SDS011;7120;52.890;6.040;2022-09-09T09:18:23;7.33;;;3.30;;
14088;SDS011;7120;52.890;6.040;2022-09-09T09:23:57;5.13;;;2.70;;
14088;SDS011;7120;52.890;6.040;2022-09-09T09:26:25;6.37;;;3.20;;
14088;SDS011;7120;52.890;6.040;2022-09-09T09:28:55;6.67;;;2.87;;
14088;SDS011;7120;52.890;6.040;2022-09-09T09:31:23;7.33;;;3.00;;
14088;SDS011;7120;52.890;6.040;2022-09-09T09:33:55;7.93;;;2.90;;
14088;SDS011;7120;52.890;6.040;2022-09-09T09:36:32;6.13;;;3.00;;
14088;SDS011;7120;52.890;6.040;2022-09-09T09:39:00;5.77;;;2.90;;
14088;SDS011;7120;52.890;6.040;2022-09-09T09:44:19;8.00;;;2.30;;
14088;SDS011;7120;52.890;6.040;2022-09-09T09:46:47;4.67;;;2.17;;
14088;SDS011;7120;52.890;6.040;2022-09-09T09:49:12;4.80;;;2.37;;
14088;SDS011;7120;52.890;6.040;2022-09-09T09:51:38;5.17;;;2.03;;
14088;SDS011;7120;52.890;6.040;2022-09-09T09:56:43;7.93;;;2.20;;
14088;SDS011;7120;52.890;6.040;2022-09-09T09:59:20;5.57;;;1.90;;
14088;SDS011;7120;52.890;6.040;2022-09-09T10:01:46;5.83;;;2.07;;
14088;SDS011;7120;52.890;6.040;2022-09-09T10:04:18;8.13;;;2.67;;
14088;SDS011;7120;52.890;6.040;2022-09-09T10:06:48;5.57;;;2.20;;
14088;SDS011;7120;52.890;6.040;2022-09-09T10:09:23;5.67;;;2.53;;
14088;SDS011;7120;52.890;6.040;2022-09-09T10:11:55;3.33;;;1.97;;
14088;SDS011;7120;52.890;6.040;2022-09-09T10:14:32;4.53;;;1.80;;
14088;SDS011;7120;52.890;6.040;2022-09-09T10:22:59;4.97;;;2.10;;
14088;SDS011;7120;52.890;6.040;2022-09-09T10:36:56;9.00;;;2.20;;
14088;SDS011;7120;52.890;6.040;2022-09-09T10:39:32;6.10;;;2.17;;
14088;SDS011;7120;52.890;6.040;2022-09-09T10:42:06;5.17;;;1.90;;
14088;SDS011;7120;52.890;6.040;2022-09-09T10:44:38;10.63;;;2.80;;
14088;SDS011;7120;52.890;6.040;2022-09-09T10:50:13;4.73;;;1.97;;
14088;SDS011;7120;52.890;6.040;2022-09-09T10:52:50;9.30;;;2.10;;
14088;SDS011;7120;52.890;6.040;2022-09-09T10:55:29;7.87;;;2.60;;
14088;SDS011;7120;52.890;6.040;2022-09-09T10:58:02;7.57;;;2.17;;
14088;SDS011;7120;52.890;6.040;2022-09-09T11:00:38;4.90;;;2.00;;
14088;SDS011;7120;52.890;6.040;2022-09-09T11:03:09;5.13;;;2.00;;
14088;SDS011;7120;52.890;6.040;2022-09-09T11:08:38;7.10;;;2.00;;
14088;SDS011;7120;52.890;6.040;2022-09-09T11:22:07;8.90;;;2.90;;
14088;SDS011;7120;52.890;6.040;2022-09-09T11:24:41;5.97;;;2.30;;
14088;SDS011;7120;52.890;6.040;2022-09-09T11:27:20;6.77;;;2.43;;
14088;SDS011;7120;52.890;6.040;2022-09-09T11:35:56;4.97;;;2.27;;
14088;SDS011;7120;52.890;6.040;2022-09-09T11:38:45;8.80;;;2.47;;
14088;SDS011;7120;52.890;6.040;2022-09-09T11:41:12;5.63;;;2.23;;
14088;SDS011;7120;52.890;6.040;2022-09-09T11:46:05;4.77;;;2.43;;
14088;SDS011;7120;52.890;6.040;2022-09-09T11:48:36;7.13;;;2.43;;
14088;SDS011;7120;52.890;6.040;2022-09-09T11:51:26;6.93;;;2.33;;
14088;SDS011;7120;52.890;6.040;2022-09-09T11:56:28;4.47;;;2.07;;
14088;SDS011;7120;52.890;6.040;2022-09-09T11:58:57;5.60;;;2.00;;
14088;SDS011;7120;52.890;6.040;2022-09-09T12:01:50;6.13;;;2.17;;
14088;SDS011;7120;52.890;6.040;2022-09-09T12:09:45;6.33;;;1.83;;
14088;SDS011;7120;52.890;6.040;2022-09-09T12:17:19;4.73;;;2.03;;
14088;SDS011;7120;52.890;6.040;2022-09-09T12:19:45;5.20;;;2.10;;
14088;SDS011;7120;52.890;6.040;2022-09-09T12:25:16;4.50;;;1.80;;
14088;SDS011;7120;52.890;6.040;2022-09-09T12:30:31;7.07;;;2.30;;
14088;SDS011;7120;52.890;6.040;2022-09-09T12:33:10;8.60;;;2.27;;
14088;SDS011;7120;52.890;6.040;2022-09-09T12:35:38;6.70;;;2.23;;
14088;SDS011;7120;52.890;6.040;2022-09-09T12:38:05;6.57;;;2.93;;
14088;SDS011;7120;52.890;6.040;2022-09-09T12:40:36;5.13;;;2.80;;
14088;SDS011;7120;52.890;6.040;2022-09-09T12:43:14;8.93;;;2.90;;
14088;SDS011;7120;52.890;6.040;2022-09-09T12:45:42;6.80;;;2.73;;
14088;SDS011;7120;52.890;6.040;2022-09-09T12:48:08;3.43;;;2.10;;
14088;SDS011;7120;52.890;6.040;2022-09-09T12:50:37;4.20;;;2.10;;
14088;SDS011;7120;52.890;6.040;2022-09-09T12:53:29;4.87;;;2.30;;
14088;SDS011;7120;52.890;6.040;2022-09-09T12:55:57;8.07;;;2.60;;
14088;SDS011;7120;52.890;6.040;2022-09-09T12:58:25;4.83;;;2.20;;
14088;SDS011;7120;52.890;6.040;2022-09-09T13:00:54;7.20;;;2.73;;
14088;SDS011;7120;52.890;6.040;2022-09-09T13:03:23;4.53;;;2.47;;
14088;SDS011;7120;52.890;6.040;2022-09-09T13:05:50;4.43;;;1.70;;
14088;SDS011;7120;52.890;6.040;2022-09-09T13:08:16;3.83;;;1.70;;
14088;SDS011;7120;52.890;6.040;2022-09-09T13:13:28;3.57;;;1.80;;
14088;SDS011;7120;52.890;6.040;2022-09-09T13:15:58;3.53;;;1.73;;
14088;SDS011;7120;52.890;6.040;2022-09-09T13:18:43;4.27;;;1.60;;
14088;SDS011;7120;52.890;6.040;2022-09-09T13:21:08;3.23;;;1.47;;
14088;SDS011;7120;52.890;6.040;2022-09-09T13:23:35;5.17;;;1.77;;
14088;SDS011;7120;52.890;6.040;2022-09-09T13:26:03;3.77;;;1.77;;
14088;SDS011;7120;52.890;6.040;2022-09-09T13:28:33;3.53;;;1.53;;
14088;SDS011;7120;52.890;6.040;2022-09-09T13:31:00;3.53;;;1.30;;
14088;SDS011;7120;52.890;6.040;2022-09-09T13:33:33;1.60;;;1.13;;
14088;SDS011;7120;52.890;6.040;2022-09-09T13:36:03;3.23;;;1.40;;
14088;SDS011;7120;52.890;6.040;2022-09-09T13:38:38;3.03;;;1.40;;
14088;SDS011;7120;52.890;6.040;2022-09-09T13:41:19;2.73;;;1.53;;
14088;SDS011;7120;52.890;6.040;2022-09-09T13:43:48;5.03;;;1.40;;
14088;SDS011;7120;52.890;6.040;2022-09-09T13:46:32;2.20;;;1.37;;
14088;SDS011;7120;52.890;6.040;2022-09-09T13:49:00;4.07;;;1.70;;
14088;SDS011;7120;52.890;6.040;2022-09-09T13:51:38;4.43;;;1.90;;
14088;SDS011;7120;52.890;6.040;2022-09-09T13:54:05;4.17;;;1.77;;
14088;SDS011;7120;52.890;6.040;2022-09-09T13:56:34;5.60;;;2.20;;
14088;SDS011;7120;52.890;6.040;2022-09-09T13:59:00;5.13;;;2.33;;
14088;SDS011;7120;52.890;6.040;2022-09-09T14:01:27;4.43;;;2.03;;
14088;SDS011;7120;52.890;6.040;2022-09-09T14:03:52;5.40;;;2.33;;
14088;SDS011;7120;52.890;6.040;2022-09-09T14:06:18;4.30;;;1.60;;
14088;SDS011;7120;52.890;6.040;2022-09-09T14:08:44;7.30;;;1.70;;
14088;SDS011;7120;52.890;6.040;2022-09-09T14:11:10;3.77;;;1.73;;
14088;SDS011;7120;52.890;6.040;2022-09-09T14:13:37;4.53;;;2.20;;
14088;SDS011;7120;52.890;6.040;2022-09-09T14:16:02;4.33;;;1.83;;
14088;SDS011;7120;52.890;6.040;2022-09-09T14:18:28;6.77;;;2.10;;
14088;SDS011;7120;52.890;6.040;2022-09-09T14:20:53;4.83;;;1.80;;
14088;SDS011;7120;52.890;6.040;2022-09-09T14:23:19;4.90;;;2.03;;
14088;SDS011;7120;52.890;6.040;2022-09-09T14:25:46;3.97;;;1.83;;
14088;SDS011;7120;52.890;6.040;2022-09-09T14:28:12;3.30;;;1.90;;
14088;SDS011;7120;52.890;6.040;2022-09-09T14:30:39;5.47;;;2.20;;
14088;SDS011;7120;52.890;6.040;2022-09-09T14:33:06;3.20;;;1.80;;
14088;SDS011;7120;52.890;6.040;2022-09-09T14:35:34;2.77;;;1.77;;
14088;SDS011;7120;52.890;6.040;2022-09-09T14:38:00;2.57;;;1.60;;
14088;SDS011;7120;52.890;6.040;2022-09-09T14:40:26;4.70;;;2.10;;
14088;SDS011;7120;52.890;6.040;2022-09-09T14:42:52;9.33;;;2.60;;
14088;SDS011;7120;52.890;6.040;2022-09-09T14:45:18;7.30;;;2.87;;
14088;SDS011;7120;52.890;6.040;2022-09-09T14:47:43;5.97;;;3.00;;
14088;SDS011;7120;52.890;6.040;2022-09-09T14:50:08;8.33;;;3.03;;
14088;SDS011;7120;52.890;6.040;2022-09-09T14:52:34;4.83;;;2.63;;
14088;SDS011;7120;52.890;6.040;2022-09-09T14:54:59;5.30;;;3.00;;
14088;SDS011;7120;52.890;6.040;2022-09-09T14:57:24;4.50;;;3.17;;
14088;SDS011;7120;52.890;6.040;2022-09-09T14:59:50;6.20;;;3.77;;
14088;SDS011;7120;52.890;6.040;2022-09-09T15:02:15;5.53;;;3.50;;
14088;SDS011;7120;52.890;6.040;2022-09-09T15:04:41;6.30;;;3.23;;
14088;SDS011;7120;52.890;6.040;2022-09-09T15:07:06;5.07;;;3.50;;
14088;SDS011;7120;52.890;6.040;2022-09-09T15:09:32;7.37;;;3.53;;
14088;SDS011;7120;52.890;6.040;2022-09-09T15:11:57;6.73;;;3.67;;
14088;SDS011;7120;52.890;6.040;2022-09-09T15:14:22;9.63;;;4.50;;
14088;SDS011;7120;52.890;6.040;2022-09-09T15:16:48;6.53;;;3.80;;
14088;SDS011;7120;52.890;6.040;2022-09-09T15:19:13;4.23;;;3.63;;
14088;SDS011;7120;52.890;6.040;2022-09-09T15:21:39;5.03;;;3.57;;
14088;SDS011;7120;52.890;6.040;2022-09-09T15:24:05;8.03;;;3.80;;
14088;SDS011;7120;52.890;6.040;2022-09-09T15:26:33;6.33;;;3.90;;
14088;SDS011;7120;52.890;6.040;2022-09-09T15:28:58;8.40;;;3.90;;
14088;SDS011;7120;52.890;6.040;2022-09-09T15:31:27;4.80;;;4.00;;
14088;SDS011;7120;52.890;6.040;2022-09-09T15:34:02;3.53;;;3.23;;
14088;SDS011;7120;52.890;6.040;2022-09-09T15:36:30;5.47;;;3.57;;
14088;SDS011;7120;52.890;6.040;2022-09-09T15:39:00;4.07;;;3.33;;
14088;SDS011;7120;52.890;6.040;2022-09-09T15:41:27;6.73;;;3.60;;
14088;SDS011;7120;52.890;6.040;2022-09-09T15:43:54;4.97;;;2.87;;
14088;SDS011;7120;52.890;6.040;2022-09-09T15:46:33;3.13;;;2.40;;
14088;SDS011;7120;52.890;6.040;2022-09-09T15:51:31;3.40;;;2.73;;
14088;SDS011;7120;52.890;6.040;2022-09-09T15:53:57;5.97;;;2.90;;
14088;SDS011;7120;52.890;6.040;2022-09-09T15:56:24;3.80;;;3.07;;
14088;SDS011;7120;52.890;6.040;2022-09-09T15:58:52;7.10;;;3.73;;
14088;SDS011;7120;52.890;6.040;2022-09-09T16:01:18;4.27;;;3.27;;
14088;SDS011;7120;52.890;6.040;2022-09-09T16:03:44;5.00;;;3.53;;
14088;SDS011;7120;52.890;6.040;2022-09-09T16:06:15;5.83;;;3.40;;
14088;SDS011;7120;52.890;6.040;2022-09-09T16:08:43;3.87;;;3.00;;
14088;SDS011;7120;52.890;6.040;2022-09-09T16:11:14;6.10;;;3.50;;
14088;SDS011;7120;52.890;6.040;2022-09-09T16:13:41;4.97;;;3.30;;
14088;SDS011;7120;52.890;6.040;2022-09-09T16:16:09;5.43;;;2.93;;
14088;SDS011;7120;52.890;6.040;2022-09-09T16:18:38;4.43;;;3.00;;
14088;SDS011;7120;52.890;6.040;2022-09-09T16:21:05;2.80;;;2.30;;
14088;SDS011;7120;52.890;6.040;2022-09-09T16:23:33;4.30;;;2.97;;
14088;SDS011;7120;52.890;6.040;2022-09-09T16:25:59;5.40;;;3.30;;
14088;SDS011;7120;52.890;6.040;2022-09-09T16:28:25;4.17;;;2.97;;
14088;SDS011;7120;52.890;6.040;2022-09-09T16:30:51;4.73;;;3.07;;
14088;SDS011;7120;52.890;6.040;2022-09-09T16:33:17;4.93;;;3.13;;
14088;SDS011;7120;52.890;6.040;2022-09-09T16:35:42;4.43;;;3.00;;
14088;SDS011;7120;52.890;6.040;2022-09-09T16:38:08;5.10;;;3.40;;
14088;SDS011;7120;52.890;6.040;2022-09-09T16:40:34;7.70;;;3.67;;
14088;SDS011;7120;52.890;6.040;2022-09-09T16:43:00;4.10;;;3.30;;
14088;SDS011;7120;52.890;6.040;2022-09-09T16:45:26;5.93;;;3.20;;
14088;SDS011;7120;52.890;6.040;2022-09-09T16:47:51;5.97;;;3.03;;
14088;SDS011;7120;52.890;6.040;2022-09-09T16:50:17;5.43;;;2.63;;
14088;SDS011;7120;52.890;6.040;2022-09-09T16:52:42;6.27;;;3.10;;
14088;SDS011;7120;52.890;6.040;2022-09-09T16:55:08;5.30;;;3.17;;
14088;SDS011;7120;52.890;6.040;2022-09-09T16:57:34;6.67;;;3.27;;
14088;SDS011;7120;52.890;6.040;2022-09-09T17:00:00;4.93;;;3.37;;
14088;SDS011;7120;52.890;6.040;2022-09-09T17:02:26;5.00;;;3.30;;
14088;SDS011;7120;52.890;6.040;2022-09-09T17:04:51;5.03;;;3.37;;
14088;SDS011;7120;52.890;6.040;2022-09-09T17:07:17;4.53;;;3.37;;
14088;SDS011;7120;52.890;6.040;2022-09-09T17:09:44;7.70;;;3.60;;
14088;SDS011;7120;52.890;6.040;2022-09-09T17:12:10;4.43;;;2.77;;
14088;SDS011;7120;52.890;6.040;2022-09-09T17:14:37;4.87;;;3.20;;
14088;SDS011;7120;52.890;6.040;2022-09-09T17:17:03;3.83;;;3.27;;
14088;SDS011;7120;52.890;6.040;2022-09-09T17:19:29;4.30;;;2.73;;
14088;SDS011;7120;52.890;6.040;2022-09-09T17:21:55;4.13;;;2.87;;
14088;SDS011;7120;52.890;6.040;2022-09-09T17:24:22;6.07;;;3.50;;
14088;SDS011;7120;52.890;6.040;2022-09-09T17:26:48;6.13;;;3.17;;
14088;SDS011;7120;52.890;6.040;2022-09-09T17:29:13;6.23;;;3.27;;
14088;SDS011;7120;52.890;6.040;2022-09-09T17:31:39;6.53;;;3.27;;
14088;SDS011;7120;52.890;6.040;2022-09-09T17:34:05;4.93;;;3.40;;
14088;SDS011;7120;52.890;6.040;2022-09-09T17:36:33;4.70;;;3.50;;